createdAt,value
2023-05-09T00:00:43.743Z,28.42
2023-05-09T00:03:29.609Z,30.70
2023-05-09T00:06:15.592Z,31.33
2023-05-09T00:09:01.440Z,29.02
2023-05-09T00:11:48.773Z,29.65
2023-05-09T00:14:34.479Z,29.80
2023-05-09T00:17:22.587Z,29.38
2023-05-09T00:20:12.507Z,28.40
2023-05-09T00:22:58.258Z,30.17
2023-05-09T00:25:44.170Z,29.83
2023-05-09T00:28:32.289Z,29.42
2023-05-09T00:31:17.956Z,30.55
2023-05-09T00:34:03.624Z,32.28
2023-05-09T00:36:50.632Z,30.63
2023-05-09T00:39:36.377Z,31.55
2023-05-09T00:42:22.035Z,33.10
2023-05-09T00:45:10.636Z,32.90
2023-05-09T00:47:56.725Z,34.13
2023-05-09T00:50:42.906Z,30.83
2023-05-09T00:53:28.615Z,31.95
2023-05-09T00:56:15.107Z,32.90
2023-05-09T00:59:00.842Z,34.70
2023-05-09T01:01:48.190Z,34.17
2023-05-09T01:04:34.112Z,34.13
2023-05-09T01:07:29.045Z,34.80
2023-05-09T01:10:22.826Z,34.55
2023-05-09T01:13:22.735Z,34.40
2023-05-09T01:16:16.854Z,33.58
2023-05-09T01:19:22.657Z,34.20
2023-05-09T01:22:12.010Z,34.50
2023-05-09T01:25:36.123Z,34.47
2023-05-09T01:28:35.623Z,32.75
2023-05-09T01:31:24.197Z,33.95
2023-05-09T01:34:12.178Z,35.35
2023-05-09T01:37:00.865Z,33.53
2023-05-09T01:39:49.952Z,35.60
2023-05-09T01:42:41.289Z,34.00
2023-05-09T01:45:28.633Z,34.33
2023-05-09T01:48:16.768Z,34.78
2023-05-09T01:51:04.051Z,35.00
2023-05-09T01:53:51.606Z,34.20
2023-05-09T01:56:39.016Z,35.50
2023-05-09T01:59:26.799Z,34.40
2023-05-09T02:02:12.949Z,34.65
2023-05-09T02:05:00.807Z,34.65
2023-05-09T02:07:47.641Z,35.35
2023-05-09T02:10:34.645Z,34.30
2023-05-09T02:13:20.136Z,33.90
2023-05-09T02:16:07.756Z,32.78
2023-05-09T02:18:55.179Z,32.33
2023-05-09T02:21:42.273Z,33.67
2023-05-09T02:24:29.727Z,33.60
2023-05-09T02:27:16.262Z,32.30
2023-05-09T02:30:07.405Z,33.92
2023-05-09T02:32:57.096Z,30.35
2023-05-09T02:35:45.432Z,31.08
2023-05-09T02:38:33.675Z,32.13
2023-05-09T02:41:21.809Z,31.75
2023-05-09T02:44:07.962Z,29.90
2023-05-09T02:46:53.337Z,30.90
2023-05-09T02:49:38.960Z,29.05
2023-05-09T02:52:24.960Z,29.67
2023-05-09T02:55:12.546Z,29.58
2023-05-09T02:58:12.897Z,29.25
2023-05-09T03:01:00.145Z,27.48
2023-05-09T03:03:46.352Z,26.15
2023-05-09T03:06:33.102Z,25.60
2023-05-09T03:09:19.049Z,25.88
2023-05-09T03:12:06.656Z,26.73
2023-05-09T03:14:52.715Z,24.65
2023-05-09T03:17:39.183Z,23.60
2023-05-09T03:20:25.862Z,21.88
2023-05-09T03:23:11.732Z,22.00
2023-05-09T03:25:57.368Z,21.73
2023-05-09T03:28:46.276Z,22.73
2023-05-09T03:31:32.363Z,21.95
2023-05-09T03:34:18.279Z,21.38
2023-05-09T03:37:04.313Z,21.42
2023-05-09T03:39:51.868Z,21.65
2023-05-09T03:42:37.905Z,22.30
2023-05-09T03:45:26.497Z,21.70
2023-05-09T03:48:12.857Z,22.20
2023-05-09T03:51:04.785Z,22.77
2023-05-09T03:53:53.506Z,22.90
2023-05-09T03:56:40.504Z,21.80
2023-05-09T03:59:26.085Z,23.52
2023-05-09T04:02:13.620Z,22.33
2023-05-09T04:04:59.337Z,22.42
2023-05-09T04:07:45.473Z,22.13
2023-05-09T04:10:32.197Z,22.65
2023-05-09T04:13:18.068Z,22.40
2023-05-09T04:16:05.616Z,22.60
2023-05-09T04:18:54.287Z,21.63
2023-05-09T04:21:39.717Z,22.02
2023-05-09T04:24:25.973Z,21.58
2023-05-09T04:27:11.793Z,20.30
2023-05-09T04:29:57.774Z,21.67
2023-05-09T04:32:46.047Z,21.00
2023-05-09T04:35:33.621Z,20.77
2023-05-09T04:38:19.525Z,20.75
2023-05-09T04:41:06.037Z,20.73
2023-05-09T04:43:52.336Z,19.95
2023-05-09T04:46:39.346Z,21.23
2023-05-09T04:49:25.298Z,20.55
2023-05-09T04:52:12.169Z,20.80
2023-05-09T04:54:57.684Z,20.50
2023-05-09T04:57:47.304Z,21.23
2023-05-09T05:00:33.775Z,20.25
2023-05-09T05:03:19.813Z,20.58
2023-05-09T05:06:06.572Z,19.40
2023-05-09T05:08:53.714Z,20.33
2023-05-09T05:14:25.152Z,19.88
2023-05-09T05:17:10.805Z,19.08
2023-05-09T05:19:57.039Z,18.70
2023-05-09T05:22:43.632Z,19.90
2023-05-09T05:25:31.322Z,18.17
2023-05-09T05:28:19.243Z,17.83
2023-05-09T05:31:05.443Z,20.13
2023-05-09T05:33:51.786Z,17.73
2023-05-09T05:36:39.129Z,18.50
2023-05-09T05:39:24.977Z,19.27
2023-05-09T05:42:13.626Z,18.55
2023-05-09T05:45:06.273Z,18.38
2023-05-09T05:47:56.389Z,18.02
2023-05-09T05:50:43.133Z,18.30
2023-05-09T05:53:32.146Z,17.70
2023-05-09T05:56:19.093Z,18.13
2023-05-09T05:59:06.617Z,18.50
2023-05-09T06:01:52.653Z,17.48
2023-05-09T06:04:38.808Z,16.73
2023-05-09T06:07:24.385Z,17.33
2023-05-09T06:10:11.367Z,16.70
2023-05-09T06:12:57.192Z,15.55
2023-05-09T06:15:44.354Z,17.00
2023-05-09T06:18:31.088Z,16.38
2023-05-09T06:21:17.079Z,16.17
2023-05-09T06:24:11.779Z,16.73
2023-05-09T06:27:00.703Z,15.25
2023-05-09T06:29:46.603Z,15.40
2023-05-09T06:32:33.680Z,14.38
2023-05-09T06:35:19.616Z,14.88
2023-05-09T06:38:05.032Z,13.48
2023-05-09T06:40:50.772Z,14.45
2023-05-09T06:43:36.590Z,12.90
2023-05-09T06:46:22.468Z,12.82
2023-05-09T06:49:09.583Z,12.38
2023-05-09T06:51:55.322Z,12.32
2023-05-09T06:54:40.827Z,13.00
2023-05-09T06:57:26.993Z,12.65
2023-05-09T07:00:14.181Z,13.13
2023-05-09T07:03:00.147Z,12.77
2023-05-09T07:05:47.243Z,13.40
2023-05-09T07:08:32.968Z,12.27
2023-05-09T07:11:18.787Z,12.77
2023-05-09T07:14:04.716Z,12.15
2023-05-09T07:16:50.879Z,13.57
2023-05-09T07:19:36.791Z,12.88
2023-05-09T07:22:24.130Z,13.05
2023-05-09T07:25:10.614Z,12.77
2023-05-09T07:27:56.234Z,13.23
2023-05-09T07:30:43.669Z,13.05
2023-05-09T07:33:29.696Z,12.45
2023-05-09T07:36:17.110Z,12.80
2023-05-09T07:39:04.912Z,12.60
2023-05-09T07:41:50.737Z,13.05
2023-05-09T07:44:36.688Z,11.90
2023-05-09T07:47:22.376Z,13.45
2023-05-09T07:50:09.211Z,12.27
2023-05-09T07:52:55.661Z,11.63
2023-05-09T07:55:44.583Z,11.93
2023-05-09T07:58:30.573Z,11.60
2023-05-09T08:01:16.169Z,11.35
2023-05-09T08:04:02.279Z,10.63
2023-05-09T08:06:48.132Z,11.05
2023-05-09T08:09:33.688Z,12.00
2023-05-09T08:12:21.059Z,12.05
2023-05-09T08:15:07.705Z,10.93
2023-05-09T08:17:53.743Z,11.43
2023-05-09T08:20:39.865Z,10.15
2023-05-09T08:23:25.413Z,11.20
2023-05-09T08:26:11.254Z,11.68
2023-05-09T08:28:58.081Z,11.13
2023-05-09T08:31:43.876Z,12.10
2023-05-09T08:34:34.400Z,10.90
2023-05-09T08:37:20.226Z,10.80
2023-05-09T08:40:07.784Z,10.73
2023-05-09T08:42:54.302Z,10.00
2023-05-09T08:45:49.640Z,10.55
2023-05-09T08:48:38.703Z,9.52
2023-05-09T08:51:25.055Z,10.40
2023-05-09T08:54:11.849Z,10.48
2023-05-09T08:56:57.831Z,8.75
2023-05-09T08:59:45.438Z,8.98
2023-05-09T09:02:33.515Z,9.38
2023-05-09T09:05:40.263Z,8.80
2023-05-09T09:08:26.226Z,8.20
2023-05-09T09:11:13.289Z,8.38
2023-05-09T09:14:01.998Z,8.05
2023-05-09T09:16:48.947Z,8.20
2023-05-09T09:19:40.934Z,8.45
2023-05-09T09:22:33.678Z,7.82
2023-05-09T09:25:19.562Z,6.75
2023-05-09T09:28:05.363Z,6.57
2023-05-09T09:30:51.234Z,6.25
2023-05-09T09:33:37.134Z,6.75
2023-05-09T09:36:33.399Z,6.47
2023-05-09T09:39:19.406Z,7.28
2023-05-09T09:42:11.937Z,7.13
2023-05-09T09:45:02.378Z,6.80
2023-05-09T09:47:49.975Z,6.22
2023-05-09T09:50:35.555Z,6.45
2023-05-09T09:53:23.791Z,6.90
2023-05-09T09:56:10.119Z,6.85
2023-05-09T09:59:09.499Z,7.10
2023-05-09T10:01:57.387Z,7.47
2023-05-09T10:04:44.299Z,7.47
2023-05-09T10:07:35.350Z,7.63
2023-05-09T10:10:24.077Z,6.65
2023-05-09T10:13:12.047Z,7.30
2023-05-09T10:15:58.781Z,7.45
2023-05-09T10:18:44.838Z,6.97
2023-05-09T10:21:31.514Z,8.15
2023-05-09T10:24:22.258Z,7.15
2023-05-09T10:27:11.261Z,7.88
2023-05-09T10:30:07.099Z,7.70
2023-05-09T10:32:57.861Z,7.90
2023-05-09T10:35:46.756Z,6.93
2023-05-09T10:38:33.004Z,5.95
2023-05-09T10:41:19.927Z,5.78
2023-05-09T10:44:07.740Z,6.07
2023-05-09T10:46:54.180Z,6.40
2023-05-09T10:49:40.928Z,4.90
2023-05-09T10:52:32.893Z,5.25
2023-05-09T10:55:19.008Z,5.20
2023-05-09T10:58:22.775Z,5.50
2023-05-09T11:01:10.723Z,5.72
2023-05-09T11:03:58.311Z,5.25
2023-05-09T11:06:51.664Z,5.07
2023-05-09T11:09:41.200Z,4.82
2023-05-09T11:12:27.286Z,4.63
2023-05-09T11:15:13.166Z,4.70
2023-05-09T11:18:09.323Z,4.60
2023-05-09T11:20:56.017Z,5.13
2023-05-09T11:23:41.579Z,5.35
2023-05-09T11:26:30.366Z,5.60
2023-05-09T11:29:16.139Z,6.13
2023-05-09T11:32:05.901Z,6.22
2023-05-09T11:35:05.157Z,5.90
2023-05-09T11:37:52.913Z,6.70
2023-05-09T11:40:40.053Z,6.80
2023-05-09T11:43:25.912Z,6.93
2023-05-09T11:46:12.709Z,6.55
2023-05-09T11:48:59.345Z,7.28
2023-05-09T11:51:46.693Z,7.38
2023-05-09T11:54:32.465Z,7.00
2023-05-09T11:57:18.292Z,7.60
2023-05-09T12:00:06.356Z,6.85
2023-05-09T12:02:53.108Z,6.38
2023-05-09T12:05:42.688Z,6.80
2023-05-09T12:08:30.208Z,6.40
2023-05-09T12:11:16.014Z,7.00
2023-05-09T12:14:01.546Z,6.45
2023-05-09T12:16:47.153Z,6.93
2023-05-09T12:19:32.807Z,6.50
2023-05-09T12:22:20.084Z,7.25
2023-05-09T12:25:09.590Z,6.75
2023-05-09T12:27:57.270Z,6.32
2023-05-09T12:30:43.880Z,6.20
2023-05-09T12:33:30.510Z,7.13
2023-05-09T12:36:16.875Z,6.43
2023-05-09T12:39:02.715Z,6.32
2023-05-09T12:42:01.085Z,5.45
2023-05-09T12:44:50.731Z,5.80
2023-05-09T12:47:38.830Z,6.13
2023-05-09T12:50:32.190Z,6.28
2023-05-09T12:53:24.552Z,5.57
2023-05-09T12:56:18.095Z,5.45
2023-05-09T12:59:11.263Z,5.43
2023-05-09T13:01:59.112Z,5.28
2023-05-09T13:04:45.064Z,4.38
2023-05-09T13:07:39.129Z,5.00
2023-05-09T13:10:30.362Z,4.22
2023-05-09T13:13:16.498Z,4.25
2023-05-09T13:16:05.750Z,4.50
2023-05-09T13:18:52.673Z,4.63
2023-05-09T13:21:38.487Z,4.63
2023-05-09T13:24:24.431Z,3.95
2023-05-09T13:27:10.966Z,3.90
2023-05-09T13:29:56.843Z,3.22
2023-05-09T13:32:44.234Z,3.85
2023-05-09T13:35:30.365Z,3.92
2023-05-09T13:38:16.039Z,4.80
2023-05-09T13:41:01.607Z,4.30
2023-05-09T13:43:47.478Z,4.90
2023-05-09T13:46:33.174Z,5.20
2023-05-09T13:49:20.408Z,4.90
2023-05-09T13:52:06.813Z,5.65
2023-05-09T13:54:52.767Z,4.80
2023-05-09T13:57:38.949Z,4.75
2023-05-09T14:00:26.560Z,4.78
2023-05-09T14:03:12.109Z,5.47
2023-05-09T14:05:59.734Z,5.85
2023-05-09T14:08:45.826Z,5.93
2023-05-09T14:11:31.769Z,6.82
2023-05-09T14:14:17.814Z,7.00
2023-05-09T14:17:04.476Z,7.32
2023-05-09T14:19:50.119Z,7.32
2023-05-09T14:22:37.346Z,7.20
2023-05-09T14:25:23.106Z,6.93
2023-05-09T14:28:09.559Z,6.85
2023-05-09T14:30:55.459Z,6.97
2023-05-09T14:33:41.212Z,7.75
2023-05-09T14:36:27.307Z,6.97
2023-05-09T14:39:14.185Z,7.00
2023-05-09T14:42:00.181Z,7.00
2023-05-09T14:44:47.280Z,6.68
2023-05-09T14:47:34.337Z,7.15
2023-05-09T14:50:21.559Z,7.90
2023-05-09T14:53:07.703Z,7.53
2023-05-09T14:55:55.276Z,7.25
2023-05-09T14:58:41.079Z,7.10
2023-05-09T15:01:26.977Z,6.80
2023-05-09T15:04:13.208Z,6.95
2023-05-09T15:06:59.841Z,6.63
2023-05-09T15:09:46.108Z,6.38
2023-05-09T15:12:36.317Z,6.63
2023-05-09T15:15:24.053Z,7.43
2023-05-09T15:18:10.332Z,6.78
2023-05-09T15:20:56.591Z,7.70
2023-05-09T15:23:42.075Z,7.30
2023-05-09T15:26:28.057Z,7.53
2023-05-09T15:29:15.385Z,7.22
2023-05-09T15:32:01.222Z,6.88
2023-05-09T15:34:47.343Z,5.65
2023-05-09T15:37:35.066Z,5.85
2023-05-09T15:40:21.410Z,5.68
2023-05-09T15:43:08.356Z,5.70
2023-05-09T15:45:58.508Z,5.53
2023-05-09T15:48:44.543Z,6.22
2023-05-09T15:51:31.077Z,6.40
2023-05-09T15:54:17.198Z,6.75
2023-05-09T15:57:03.683Z,7.25
2023-05-09T15:59:49.508Z,7.15
2023-05-09T16:02:36.772Z,7.60
2023-05-09T16:05:22.540Z,7.85
2023-05-09T16:08:07.966Z,7.68
2023-05-09T16:10:54.092Z,7.07
2023-05-09T16:13:40.024Z,7.65
2023-05-09T16:16:25.875Z,7.40
2023-05-09T16:19:14.013Z,7.55
2023-05-09T16:21:59.801Z,7.95
2023-05-09T16:24:45.314Z,7.20
2023-05-09T16:27:31.305Z,7.90
2023-05-09T16:30:17.476Z,7.68
2023-05-09T16:33:03.910Z,7.75
2023-05-09T16:35:51.393Z,7.85
2023-05-09T16:38:37.049Z,9.02
2023-05-09T16:41:23.046Z,8.20
2023-05-09T16:44:09.095Z,7.95
2023-05-09T16:46:54.922Z,8.05
2023-05-09T16:49:41.094Z,8.25
2023-05-09T16:52:28.058Z,7.90
2023-05-09T16:55:13.671Z,8.00
2023-05-09T16:57:59.189Z,8.60
2023-05-09T17:00:45.312Z,7.63
2023-05-09T17:03:31.286Z,7.22
2023-05-09T17:06:17.306Z,7.40
2023-05-09T17:09:10.165Z,7.32
2023-05-09T17:11:56.208Z,7.13
2023-05-09T17:14:42.179Z,7.10
2023-05-09T17:17:27.771Z,6.93
2023-05-09T17:20:13.699Z,6.55
2023-05-09T17:23:02.672Z,6.75
2023-05-09T17:25:50.480Z,5.38
2023-05-09T17:28:36.909Z,5.65
2023-05-09T17:31:22.794Z,5.28
2023-05-09T17:34:08.414Z,6.28
2023-05-09T17:36:54.158Z,5.72
2023-05-09T17:39:40.727Z,6.53
2023-05-09T17:42:27.506Z,6.45
2023-05-09T17:45:13.220Z,6.65
2023-05-09T17:48:01.361Z,6.70
2023-05-09T17:50:47.144Z,7.00
2023-05-09T17:53:33.406Z,6.18
2023-05-09T17:56:19.229Z,6.35
2023-05-09T17:59:06.536Z,7.05
2023-05-09T18:01:52.821Z,6.57
2023-05-09T18:04:39.149Z,6.72
2023-05-09T18:07:25.283Z,7.38
2023-05-09T18:10:11.707Z,6.97
2023-05-09T18:12:57.571Z,7.55
2023-05-09T18:15:44.724Z,7.47
2023-05-09T18:18:34.294Z,7.85
2023-05-09T18:21:20.224Z,8.38
2023-05-09T18:24:07.639Z,8.15
2023-05-09T18:26:53.346Z,8.60
2023-05-09T18:29:38.988Z,8.68
2023-05-09T18:32:26.218Z,8.50
2023-05-09T18:35:12.936Z,8.73
2023-05-09T18:37:59.128Z,9.18
2023-05-09T18:40:45.629Z,9.00
2023-05-09T18:43:31.200Z,8.35
2023-05-09T18:46:21.362Z,8.77
2023-05-09T18:49:09.518Z,8.63
2023-05-09T18:51:56.452Z,9.23
2023-05-09T18:54:42.796Z,8.77
2023-05-09T18:57:28.636Z,8.55
2023-05-09T19:00:15.239Z,9.05
2023-05-09T19:03:01.658Z,9.07
2023-05-09T19:05:48.600Z,8.40
2023-05-09T19:08:34.570Z,8.13
2023-05-09T19:11:20.184Z,8.45
2023-05-09T19:14:06.564Z,7.90
2023-05-09T19:16:52.122Z,8.80
2023-05-09T19:19:38.222Z,7.70
2023-05-09T19:22:25.237Z,8.50
2023-05-09T19:25:10.814Z,8.45
2023-05-09T19:27:56.469Z,8.85
2023-05-09T19:30:42.300Z,8.95
2023-05-09T19:33:28.307Z,9.55
2023-05-09T19:36:14.495Z,9.95
2023-05-09T19:39:01.380Z,10.38
2023-05-09T19:41:46.848Z,10.30
2023-05-09T19:44:32.818Z,10.95
2023-05-09T19:47:18.365Z,11.55
2023-05-09T19:50:04.601Z,12.00
2023-05-09T19:52:50.675Z,12.60
2023-05-09T19:55:37.947Z,12.85
2023-05-09T19:58:23.745Z,13.88
2023-05-09T20:01:10.155Z,13.57
2023-05-09T20:03:56.833Z,13.77
2023-05-09T20:06:42.439Z,13.57
2023-05-09T20:09:28.063Z,13.60
2023-05-09T20:12:15.980Z,14.30
2023-05-09T20:15:01.735Z,15.02
2023-05-09T20:17:48.276Z,15.65
2023-05-09T20:20:33.999Z,15.60
2023-05-09T20:23:19.466Z,15.65
2023-05-09T20:26:05.614Z,15.60
2023-05-09T20:28:54.501Z,14.82
2023-05-09T20:31:41.549Z,16.65
2023-05-09T20:34:27.367Z,16.40
2023-05-09T20:37:13.630Z,17.67
2023-05-09T20:40:00.516Z,18.40
2023-05-09T20:42:46.315Z,18.73
2023-05-09T20:45:33.220Z,16.17
2023-05-09T20:48:22.435Z,16.52
2023-05-09T20:51:08.418Z,16.52
2023-05-09T20:53:54.199Z,14.60
2023-05-09T20:56:40.041Z,13.73
2023-05-09T20:59:25.650Z,13.38
2023-05-09T21:02:13.620Z,13.45
2023-05-09T21:04:59.288Z,13.93
2023-05-09T21:07:45.089Z,14.98
2023-05-09T21:10:30.880Z,16.70
2023-05-09T21:13:16.361Z,15.18
2023-05-09T21:16:02.040Z,15.85
2023-05-09T21:18:48.893Z,17.65
2023-05-09T21:21:34.522Z,17.77
2023-05-09T21:24:20.070Z,17.42
2023-05-09T21:27:06.164Z,18.85
2023-05-09T21:29:52.105Z,17.15
2023-05-09T21:32:37.631Z,18.08
2023-05-09T21:35:24.920Z,18.17
2023-05-09T21:38:11.003Z,18.48
2023-05-09T21:40:56.403Z,19.35
2023-05-09T21:43:41.926Z,21.63
2023-05-09T21:46:27.633Z,22.77
2023-05-09T21:49:16.545Z,22.90
2023-05-09T21:52:04.195Z,23.00
2023-05-09T21:54:50.095Z,23.33
2023-05-09T21:57:35.640Z,23.58
2023-05-09T22:00:21.467Z,23.23
2023-05-09T22:03:07.278Z,25.42
2023-05-09T22:05:52.904Z,26.60
2023-05-09T22:08:39.938Z,26.42
2023-05-09T22:11:25.259Z,27.33
2023-05-09T22:14:11.237Z,28.50
2023-05-09T22:16:56.748Z,28.70
2023-05-09T22:19:42.120Z,29.33
2023-05-09T22:22:27.870Z,29.10
2023-05-09T22:25:15.220Z,30.02
2023-05-09T22:28:01.111Z,28.23
2023-05-09T22:30:47.102Z,29.00
2023-05-09T22:33:32.576Z,29.65
2023-05-09T22:36:18.498Z,29.40
2023-05-09T22:39:03.950Z,30.02
2023-05-09T22:41:51.044Z,29.20
2023-05-09T22:44:36.856Z,27.50
2023-05-09T22:47:22.686Z,29.27
2023-05-09T22:50:09.400Z,29.73
2023-05-09T22:52:55.113Z,29.13
2023-05-09T22:55:40.559Z,27.55
2023-05-09T22:58:27.785Z,28.27
2023-05-09T23:01:13.871Z,29.08
2023-05-09T23:04:01.043Z,29.27
2023-05-09T23:06:46.551Z,29.05
2023-05-09T23:09:31.942Z,29.08
2023-05-09T23:12:17.698Z,29.35
2023-05-09T23:15:05.647Z,31.85
2023-05-09T23:17:51.482Z,30.98
2023-05-09T23:20:37.515Z,31.98
2023-05-09T23:23:23.203Z,32.75
2023-05-09T23:26:10.140Z,33.22
2023-05-09T23:28:56.173Z,34.28
2023-05-09T23:31:43.452Z,34.60
2023-05-09T23:34:30.749Z,35.88
2023-05-09T23:37:16.832Z,36.67
2023-05-09T23:40:03.769Z,37.00
2023-05-09T23:42:49.164Z,37.10
2023-05-09T23:45:35.642Z,36.08
2023-05-09T23:48:23.908Z,37.97
2023-05-09T23:51:09.511Z,37.30
2023-05-09T23:53:55.125Z,39.00
2023-05-09T23:56:41.190Z,38.15
2023-05-09T23:59:26.644Z,39.33
